This is the latest recevied weather packets stored in our database for station/object PY4QS-13. If no packets are shown the sender has not sent any weather packets the latest 10 day(s).
| Time | Temp. | Humidity | Pressure | Rain* | Wind** | Luminosity | Snow |
|---|---|---|---|---|---|---|---|
| 1777748607 | 26.11° C | 45% | 1021.9 hPa | - | - | - | - |
| 1777748303 | 26.67° C | 45% | 1021.9 hPa | - | - | - | - |
| 1777748001 | 26.67° C | 45% | 1021.8 hPa | - | - | - | - |
| 1777747699 | 26.67° C | 44% | 1021.8 hPa | - | - | - | - |
| 1777747395 | 26.11° C | 44% | 1021.8 hPa | - | - | - | - |
| 1777747092 | 26.67° C | 44% | 1021.8 hPa | - | - | - | - |
| 1777746789 | 26.67° C | 44% | 1021.8 hPa | - | - | - | - |
| 1777746486 | 26.67° C | 44% | 1021.9 hPa | - | - | - | - |
| 1777746184 | 26.67° C | 45% | 1021.9 hPa | - | - | - | - |
| 1777745880 | 26.67° C | 44% | 1021.9 hPa | - | - | - | - |
| 1777745578 | 26.67° C | 44% | 1021.9 hPa | - | - | - | - |
| 1777745274 | 27.22° C | 42% | 1021.8 hPa | - | - | - | - |
| 1777744970 | 27.78° C | 41% | 1021.8 hPa | - | - | - | - |
| 1777744667 | 27.78° C | 41% | 1021.9 hPa | - | - | - | - |
| 1777744363 | 27.22° C | 41% | 1021.8 hPa | - | - | - | - |
| 1777744060 | 27.78° C | 41% | 1021.9 hPa | - | - | - | - |
| 1777743756 | 27.22° C | 41% | 1021.9 hPa | - | - | - | - |
| 1777743452 | 26.67° C | 42% | 1022 hPa | - | - | - | - |
| 1777743150 | 27.78° C | 41% | 1021.9 hPa | - | - | - | - |
| 1777742846 | 27.78° C | 42% | 1021.9 hPa | - | - | - | - |
| 1777742542 | 28.33° C | 39% | 1021.8 hPa | - | - | - | - |
| 1777742240 | 28.33° C | 40% | 1021.8 hPa | - | - | - | - |
| 1777741937 | 28.33° C | 40% | 1021.9 hPa | - | - | - | - |
| 1777741633 | 27.78° C | 42% | 1021.9 hPa | - | - | - | - |
| 1777741331 | 27.78° C | 43% | 1022 hPa | - | - | - | - |
* Rain since midnight (hover to see other rain measurements)
** Current wind speed in m/s (hover to see current wind gust speed)